sensor_id;sensor_type;location;lat;lon;timestamp;P1;durP1;ratioP1;P2;durP2;ratioP2
7203;SDS011;3643;52.460;13.322;2023-11-19T00:00:35;9.27;;;6.37;;
7203;SDS011;3643;52.460;13.322;2023-11-19T00:03:05;9.40;;;6.67;;
7203;SDS011;3643;52.460;13.322;2023-11-19T00:05:33;7.03;;;6.13;;
7203;SDS011;3643;52.460;13.322;2023-11-19T00:08:01;9.07;;;7.07;;
7203;SDS011;3643;52.460;13.322;2023-11-19T00:10:29;10.70;;;6.90;;
7203;SDS011;3643;52.460;13.322;2023-11-19T00:12:58;7.63;;;6.30;;
7203;SDS011;3643;52.460;13.322;2023-11-19T00:15:26;10.83;;;6.60;;
7203;SDS011;3643;52.460;13.322;2023-11-19T00:17:54;11.47;;;6.70;;
7203;SDS011;3643;52.460;13.322;2023-11-19T00:20:28;8.33;;;6.03;;
7203;SDS011;3643;52.460;13.322;2023-11-19T00:22:56;10.90;;;7.30;;
7203;SDS011;3643;52.460;13.322;2023-11-19T00:25:24;8.77;;;6.43;;
7203;SDS011;3643;52.460;13.322;2023-11-19T00:27:53;9.33;;;6.47;;
7203;SDS011;3643;52.460;13.322;2023-11-19T00:30:22;7.87;;;6.13;;
7203;SDS011;3643;52.460;13.322;2023-11-19T00:32:50;8.67;;;6.07;;
7203;SDS011;3643;52.460;13.322;2023-11-19T00:35:19;9.63;;;6.57;;
7203;SDS011;3643;52.460;13.322;2023-11-19T00:37:49;10.93;;;5.77;;
7203;SDS011;3643;52.460;13.322;2023-11-19T00:40:17;8.60;;;6.23;;
7203;SDS011;3643;52.460;13.322;2023-11-19T00:42:48;8.33;;;5.90;;
7203;SDS011;3643;52.460;13.322;2023-11-19T00:45:16;7.53;;;6.03;;
7203;SDS011;3643;52.460;13.322;2023-11-19T00:47:44;8.43;;;6.33;;
7203;SDS011;3643;52.460;13.322;2023-11-19T00:50:13;7.50;;;6.07;;
7203;SDS011;3643;52.460;13.322;2023-11-19T00:52:42;8.60;;;5.70;;
7203;SDS011;3643;52.460;13.322;2023-11-19T00:55:11;6.43;;;5.33;;
7203;SDS011;3643;52.460;13.322;2023-11-19T00:57:39;8.03;;;5.90;;
7203;SDS011;3643;52.460;13.322;2023-11-19T01:00:09;7.20;;;5.33;;
7203;SDS011;3643;52.460;13.322;2023-11-19T01:02:46;7.83;;;5.80;;
7203;SDS011;3643;52.460;13.322;2023-11-19T01:05:18;7.70;;;6.03;;
7203;SDS011;3643;52.460;13.322;2023-11-19T01:07:49;7.80;;;6.07;;
7203;SDS011;3643;52.460;13.322;2023-11-19T01:10:23;7.53;;;5.73;;
7203;SDS011;3643;52.460;13.322;2023-11-19T01:12:52;6.77;;;5.17;;
7203;SDS011;3643;52.460;13.322;2023-11-19T01:15:21;7.53;;;5.63;;
7203;SDS011;3643;52.460;13.322;2023-11-19T01:17:50;7.87;;;5.40;;
7203;SDS011;3643;52.460;13.322;2023-11-19T01:20:19;11.90;;;5.60;;
7203;SDS011;3643;52.460;13.322;2023-11-19T01:22:48;6.50;;;5.37;;
7203;SDS011;3643;52.460;13.322;2023-11-19T01:25:16;6.60;;;5.50;;
7203;SDS011;3643;52.460;13.322;2023-11-19T01:27:47;9.57;;;5.80;;
7203;SDS011;3643;52.460;13.322;2023-11-19T01:30:16;8.53;;;5.77;;
7203;SDS011;3643;52.460;13.322;2023-11-19T01:32:46;7.07;;;5.47;;
7203;SDS011;3643;52.460;13.322;2023-11-19T01:35:15;7.53;;;5.50;;
7203;SDS011;3643;52.460;13.322;2023-11-19T01:37:44;8.30;;;5.90;;
7203;SDS011;3643;52.460;13.322;2023-11-19T01:40:12;8.10;;;5.87;;
7203;SDS011;3643;52.460;13.322;2023-11-19T01:42:42;7.87;;;5.67;;
7203;SDS011;3643;52.460;13.322;2023-11-19T01:45:17;9.83;;;6.00;;
7203;SDS011;3643;52.460;13.322;2023-11-19T01:47:52;10.53;;;5.60;;
7203;SDS011;3643;52.460;13.322;2023-11-19T01:50:21;8.77;;;6.13;;
7203;SDS011;3643;52.460;13.322;2023-11-19T01:52:51;7.63;;;5.70;;
7203;SDS011;3643;52.460;13.322;2023-11-19T01:55:20;8.47;;;6.00;;
7203;SDS011;3643;52.460;13.322;2023-11-19T01:57:51;7.90;;;5.63;;
7203;SDS011;3643;52.460;13.322;2023-11-19T02:00:28;8.73;;;6.37;;
7203;SDS011;3643;52.460;13.322;2023-11-19T02:02:59;9.10;;;6.17;;
7203;SDS011;3643;52.460;13.322;2023-11-19T02:05:30;10.47;;;6.00;;
7203;SDS011;3643;52.460;13.322;2023-11-19T02:07:59;9.47;;;5.57;;
7203;SDS011;3643;52.460;13.322;2023-11-19T02:10:29;8.80;;;6.23;;
7203;SDS011;3643;52.460;13.322;2023-11-19T02:12:58;8.33;;;5.90;;
7203;SDS011;3643;52.460;13.322;2023-11-19T02:15:33;8.40;;;6.60;;
7203;SDS011;3643;52.460;13.322;2023-11-19T02:18:21;9.70;;;6.03;;
7203;SDS011;3643;52.460;13.322;2023-11-19T02:20:54;7.00;;;5.50;;
7203;SDS011;3643;52.460;13.322;2023-11-19T02:23:23;7.70;;;5.30;;
7203;SDS011;3643;52.460;13.322;2023-11-19T02:26:03;7.40;;;5.47;;
7203;SDS011;3643;52.460;13.322;2023-11-19T02:28:44;7.93;;;4.47;;
7203;SDS011;3643;52.460;13.322;2023-11-19T02:31:15;6.63;;;5.40;;
7203;SDS011;3643;52.460;13.322;2023-11-19T02:33:46;7.47;;;5.10;;
7203;SDS011;3643;52.460;13.322;2023-11-19T02:36:16;8.67;;;5.03;;
7203;SDS011;3643;52.460;13.322;2023-11-19T02:38:45;5.97;;;5.20;;
7203;SDS011;3643;52.460;13.322;2023-11-19T02:41:13;7.30;;;5.23;;
7203;SDS011;3643;52.460;13.322;2023-11-19T02:43:41;5.93;;;5.00;;
7203;SDS011;3643;52.460;13.322;2023-11-19T02:46:11;6.80;;;4.77;;
7203;SDS011;3643;52.460;13.322;2023-11-19T02:48:41;6.47;;;4.63;;
7203;SDS011;3643;52.460;13.322;2023-11-19T02:51:10;5.20;;;4.47;;
7203;SDS011;3643;52.460;13.322;2023-11-19T02:53:39;5.90;;;4.63;;
7203;SDS011;3643;52.460;13.322;2023-11-19T02:56:07;7.77;;;5.03;;
7203;SDS011;3643;52.460;13.322;2023-11-19T02:58:47;4.90;;;4.13;;
7203;SDS011;3643;52.460;13.322;2023-11-19T03:01:21;7.03;;;4.50;;
7203;SDS011;3643;52.460;13.322;2023-11-19T03:03:56;5.83;;;4.83;;
7203;SDS011;3643;52.460;13.322;2023-11-19T03:06:25;7.43;;;4.63;;
7203;SDS011;3643;52.460;13.322;2023-11-19T03:08:54;6.80;;;4.70;;
7203;SDS011;3643;52.460;13.322;2023-11-19T03:11:22;4.73;;;4.23;;
7203;SDS011;3643;52.460;13.322;2023-11-19T03:13:52;5.67;;;4.17;;
7203;SDS011;3643;52.460;13.322;2023-11-19T03:16:20;5.73;;;4.30;;
7203;SDS011;3643;52.460;13.322;2023-11-19T03:18:48;6.53;;;4.33;;
7203;SDS011;3643;52.460;13.322;2023-11-19T03:21:16;5.20;;;3.90;;
7203;SDS011;3643;52.460;13.322;2023-11-19T03:23:44;5.47;;;3.93;;
7203;SDS011;3643;52.460;13.322;2023-11-19T03:26:12;7.47;;;4.33;;
7203;SDS011;3643;52.460;13.322;2023-11-19T03:28:40;5.77;;;4.20;;
7203;SDS011;3643;52.460;13.322;2023-11-19T03:31:09;6.27;;;4.40;;
7203;SDS011;3643;52.460;13.322;2023-11-19T03:33:37;7.33;;;4.93;;
7203;SDS011;3643;52.460;13.322;2023-11-19T03:36:06;6.17;;;4.50;;
7203;SDS011;3643;52.460;13.322;2023-11-19T03:38:35;5.80;;;4.83;;
7203;SDS011;3643;52.460;13.322;2023-11-19T03:41:09;9.60;;;5.27;;
7203;SDS011;3643;52.460;13.322;2023-11-19T03:43:37;5.80;;;4.63;;
7203;SDS011;3643;52.460;13.322;2023-11-19T03:46:16;5.80;;;4.53;;
7203;SDS011;3643;52.460;13.322;2023-11-19T03:48:45;6.07;;;5.07;;
7203;SDS011;3643;52.460;13.322;2023-11-19T03:51:14;8.83;;;4.90;;
7203;SDS011;3643;52.460;13.322;2023-11-19T03:53:42;7.70;;;5.60;;
7203;SDS011;3643;52.460;13.322;2023-11-19T03:56:10;6.43;;;4.80;;
7203;SDS011;3643;52.460;13.322;2023-11-19T03:58:39;6.80;;;4.90;;
7203;SDS011;3643;52.460;13.322;2023-11-19T04:01:10;6.97;;;5.43;;
7203;SDS011;3643;52.460;13.322;2023-11-19T04:03:40;7.13;;;5.27;;
7203;SDS011;3643;52.460;13.322;2023-11-19T04:06:11;6.73;;;5.53;;
7203;SDS011;3643;52.460;13.322;2023-11-19T04:08:39;7.13;;;5.50;;
7203;SDS011;3643;52.460;13.322;2023-11-19T04:11:07;9.53;;;6.40;;
7203;SDS011;3643;52.460;13.322;2023-11-19T04:13:35;8.43;;;6.63;;
7203;SDS011;3643;52.460;13.322;2023-11-19T04:16:04;7.97;;;6.10;;
7203;SDS011;3643;52.460;13.322;2023-11-19T04:18:32;7.63;;;6.03;;
7203;SDS011;3643;52.460;13.322;2023-11-19T04:21:01;10.90;;;6.57;;
7203;SDS011;3643;52.460;13.322;2023-11-19T04:23:33;9.70;;;6.67;;
7203;SDS011;3643;52.460;13.322;2023-11-19T04:26:01;10.07;;;6.90;;
7203;SDS011;3643;52.460;13.322;2023-11-19T04:28:33;13.13;;;7.20;;
7203;SDS011;3643;52.460;13.322;2023-11-19T04:31:01;9.20;;;7.07;;
7203;SDS011;3643;52.460;13.322;2023-11-19T04:33:30;9.77;;;7.00;;
7203;SDS011;3643;52.460;13.322;2023-11-19T04:35:58;12.03;;;7.67;;
7203;SDS011;3643;52.460;13.322;2023-11-19T04:38:27;12.37;;;7.83;;
7203;SDS011;3643;52.460;13.322;2023-11-19T04:40:55;10.57;;;7.30;;
7203;SDS011;3643;52.460;13.322;2023-11-19T04:43:23;11.43;;;7.53;;
7203;SDS011;3643;52.460;13.322;2023-11-19T04:45:52;10.50;;;7.23;;
7203;SDS011;3643;52.460;13.322;2023-11-19T04:48:20;11.83;;;7.60;;
7203;SDS011;3643;52.460;13.322;2023-11-19T04:50:48;13.43;;;8.57;;
7203;SDS011;3643;52.460;13.322;2023-11-19T04:53:16;12.73;;;8.10;;
7203;SDS011;3643;52.460;13.322;2023-11-19T04:55:46;16.40;;;9.23;;
7203;SDS011;3643;52.460;13.322;2023-11-19T04:58:14;18.07;;;8.63;;
7203;SDS011;3643;52.460;13.322;2023-11-19T05:00:42;14.43;;;8.57;;
7203;SDS011;3643;52.460;13.322;2023-11-19T05:03:09;16.37;;;9.57;;
7203;SDS011;3643;52.460;13.322;2023-11-19T05:05:38;12.33;;;8.33;;
7203;SDS011;3643;52.460;13.322;2023-11-19T05:08:05;13.80;;;8.70;;
7203;SDS011;3643;52.460;13.322;2023-11-19T05:10:33;16.53;;;9.33;;
7203;SDS011;3643;52.460;13.322;2023-11-19T05:13:04;15.80;;;9.27;;
7203;SDS011;3643;52.460;13.322;2023-11-19T05:15:32;12.80;;;7.90;;
7203;SDS011;3643;52.460;13.322;2023-11-19T05:18:00;15.53;;;9.43;;
7203;SDS011;3643;52.460;13.322;2023-11-19T05:20:28;14.30;;;8.47;;
7203;SDS011;3643;52.460;13.322;2023-11-19T05:22:56;16.10;;;9.47;;
7203;SDS011;3643;52.460;13.322;2023-11-19T05:25:26;18.47;;;9.73;;
7203;SDS011;3643;52.460;13.322;2023-11-19T05:27:54;15.23;;;9.10;;
7203;SDS011;3643;52.460;13.322;2023-11-19T05:30:24;17.37;;;9.53;;
7203;SDS011;3643;52.460;13.322;2023-11-19T05:32:51;14.47;;;8.50;;
7203;SDS011;3643;52.460;13.322;2023-11-19T05:35:19;14.97;;;8.87;;
7203;SDS011;3643;52.460;13.322;2023-11-19T05:37:47;14.33;;;8.90;;
7203;SDS011;3643;52.460;13.322;2023-11-19T05:40:16;13.83;;;8.93;;
7203;SDS011;3643;52.460;13.322;2023-11-19T05:42:45;16.00;;;9.13;;
7203;SDS011;3643;52.460;13.322;2023-11-19T05:45:13;17.60;;;9.73;;
7203;SDS011;3643;52.460;13.322;2023-11-19T05:47:42;15.63;;;10.03;;
7203;SDS011;3643;52.460;13.322;2023-11-19T05:50:10;17.47;;;9.20;;
7203;SDS011;3643;52.460;13.322;2023-11-19T05:52:39;15.23;;;9.90;;
7203;SDS011;3643;52.460;13.322;2023-11-19T05:55:07;17.93;;;9.77;;
7203;SDS011;3643;52.460;13.322;2023-11-19T05:57:36;16.10;;;9.97;;
7203;SDS011;3643;52.460;13.322;2023-11-19T06:00:07;16.17;;;9.43;;
7203;SDS011;3643;52.460;13.322;2023-11-19T06:02:39;16.43;;;9.70;;
7203;SDS011;3643;52.460;13.322;2023-11-19T06:05:08;18.27;;;10.17;;
7203;SDS011;3643;52.460;13.322;2023-11-19T06:07:37;18.90;;;10.20;;
7203;SDS011;3643;52.460;13.322;2023-11-19T06:10:05;20.93;;;10.43;;
7203;SDS011;3643;52.460;13.322;2023-11-19T06:12:36;17.33;;;10.37;;
7203;SDS011;3643;52.460;13.322;2023-11-19T06:15:07;20.93;;;11.13;;
7203;SDS011;3643;52.460;13.322;2023-11-19T06:17:36;17.87;;;10.60;;
7203;SDS011;3643;52.460;13.322;2023-11-19T06:20:05;19.40;;;11.03;;
7203;SDS011;3643;52.460;13.322;2023-11-19T06:22:35;19.80;;;10.27;;
7203;SDS011;3643;52.460;13.322;2023-11-19T06:25:03;18.37;;;10.47;;
7203;SDS011;3643;52.460;13.322;2023-11-19T06:27:34;20.30;;;10.90;;
7203;SDS011;3643;52.460;13.322;2023-11-19T06:30:02;25.70;;;11.97;;
7203;SDS011;3643;52.460;13.322;2023-11-19T06:32:30;22.97;;;10.60;;
7203;SDS011;3643;52.460;13.322;2023-11-19T06:34:59;18.93;;;10.97;;
7203;SDS011;3643;52.460;13.322;2023-11-19T06:37:27;19.00;;;10.80;;
7203;SDS011;3643;52.460;13.322;2023-11-19T06:39:56;22.77;;;11.83;;
7203;SDS011;3643;52.460;13.322;2023-11-19T06:42:24;21.00;;;10.80;;
7203;SDS011;3643;52.460;13.322;2023-11-19T06:44:52;19.77;;;10.83;;
7203;SDS011;3643;52.460;13.322;2023-11-19T06:47:20;22.40;;;10.80;;
7203;SDS011;3643;52.460;13.322;2023-11-19T06:49:48;20.70;;;11.57;;
7203;SDS011;3643;52.460;13.322;2023-11-19T06:52:16;20.50;;;10.87;;
7203;SDS011;3643;52.460;13.322;2023-11-19T06:54:44;18.87;;;9.80;;
7203;SDS011;3643;52.460;13.322;2023-11-19T06:57:14;18.93;;;10.23;;
7203;SDS011;3643;52.460;13.322;2023-11-19T06:59:42;22.17;;;10.90;;
7203;SDS011;3643;52.460;13.322;2023-11-19T07:02:10;22.53;;;11.10;;
7203;SDS011;3643;52.460;13.322;2023-11-19T07:04:38;18.27;;;10.60;;
7203;SDS011;3643;52.460;13.322;2023-11-19T07:07:07;21.57;;;11.17;;
7203;SDS011;3643;52.460;13.322;2023-11-19T07:09:35;20.87;;;10.23;;
7203;SDS011;3643;52.460;13.322;2023-11-19T07:12:04;21.10;;;10.77;;
7203;SDS011;3643;52.460;13.322;2023-11-19T07:14:34;20.20;;;10.00;;
7203;SDS011;3643;52.460;13.322;2023-11-19T07:17:02;18.90;;;10.17;;
7203;SDS011;3643;52.460;13.322;2023-11-19T07:19:30;18.33;;;10.13;;
7203;SDS011;3643;52.460;13.322;2023-11-19T07:21:58;19.50;;;10.53;;
7203;SDS011;3643;52.460;13.322;2023-11-19T07:24:26;19.00;;;10.63;;
7203;SDS011;3643;52.460;13.322;2023-11-19T07:26:54;17.67;;;9.40;;
7203;SDS011;3643;52.460;13.322;2023-11-19T07:29:22;15.67;;;9.10;;
7203;SDS011;3643;52.460;13.322;2023-11-19T07:31:55;18.80;;;9.80;;
7203;SDS011;3643;52.460;13.322;2023-11-19T07:34:23;19.37;;;9.63;;
7203;SDS011;3643;52.460;13.322;2023-11-19T07:36:51;17.97;;;9.47;;
7203;SDS011;3643;52.460;13.322;2023-11-19T07:39:19;22.40;;;10.60;;
7203;SDS011;3643;52.460;13.322;2023-11-19T07:41:48;19.13;;;10.37;;
7203;SDS011;3643;52.460;13.322;2023-11-19T07:44:16;18.70;;;9.50;;
7203;SDS011;3643;52.460;13.322;2023-11-19T07:46:44;18.10;;;9.77;;
7203;SDS011;3643;52.460;13.322;2023-11-19T07:49:13;15.90;;;8.53;;
7203;SDS011;3643;52.460;13.322;2023-11-19T07:51:41;16.80;;;9.30;;
7203;SDS011;3643;52.460;13.322;2023-11-19T07:54:09;20.70;;;10.30;;
7203;SDS011;3643;52.460;13.322;2023-11-19T07:56:37;23.73;;;11.13;;
7203;SDS011;3643;52.460;13.322;2023-11-19T07:59:05;21.77;;;10.63;;
7203;SDS011;3643;52.460;13.322;2023-11-19T08:01:33;22.13;;;9.43;;
7203;SDS011;3643;52.460;13.322;2023-11-19T08:04:01;22.77;;;10.50;;
7203;SDS011;3643;52.460;13.322;2023-11-19T08:06:31;20.17;;;10.50;;
7203;SDS011;3643;52.460;13.322;2023-11-19T08:08:59;26.13;;;10.67;;
7203;SDS011;3643;52.460;13.322;2023-11-19T08:11:27;26.30;;;10.60;;
7203;SDS011;3643;52.460;13.322;2023-11-19T08:13:55;24.87;;;10.60;;
7203;SDS011;3643;52.460;13.322;2023-11-19T08:16:23;21.90;;;10.80;;
7203;SDS011;3643;52.460;13.322;2023-11-19T08:18:51;21.13;;;11.33;;
7203;SDS011;3643;52.460;13.322;2023-11-19T08:21:20;24.13;;;11.03;;
7203;SDS011;3643;52.460;13.322;2023-11-19T08:23:50;21.87;;;10.57;;
7203;SDS011;3643;52.460;13.322;2023-11-19T08:26:18;22.17;;;10.67;;
7203;SDS011;3643;52.460;13.322;2023-11-19T08:28:47;21.03;;;10.50;;
7203;SDS011;3643;52.460;13.322;2023-11-19T08:31:15;21.77;;;10.07;;
7203;SDS011;3643;52.460;13.322;2023-11-19T08:33:43;33.07;;;16.73;;
7203;SDS011;3643;52.460;13.322;2023-11-19T08:36:15;19.00;;;10.30;;
7203;SDS011;3643;52.460;13.322;2023-11-19T08:38:44;21.70;;;9.83;;
7203;SDS011;3643;52.460;13.322;2023-11-19T08:41:14;19.97;;;9.13;;
7203;SDS011;3643;52.460;13.322;2023-11-19T08:43:44;20.63;;;9.77;;
7203;SDS011;3643;52.460;13.322;2023-11-19T08:46:12;21.07;;;9.83;;
7203;SDS011;3643;52.460;13.322;2023-11-19T08:48:40;21.17;;;9.93;;
7203;SDS011;3643;52.460;13.322;2023-11-19T08:51:08;25.47;;;12.87;;
7203;SDS011;3643;52.460;13.322;2023-11-19T08:53:36;27.87;;;13.63;;
7203;SDS011;3643;52.460;13.322;2023-11-19T08:56:05;21.30;;;13.07;;
7203;SDS011;3643;52.460;13.322;2023-11-19T08:58:34;20.23;;;9.53;;
7203;SDS011;3643;52.460;13.322;2023-11-19T09:01:02;16.50;;;8.70;;
7203;SDS011;3643;52.460;13.322;2023-11-19T09:03:31;20.40;;;8.83;;
7203;SDS011;3643;52.460;13.322;2023-11-19T09:06:00;20.27;;;10.90;;
7203;SDS011;3643;52.460;13.322;2023-11-19T09:08:28;15.50;;;8.67;;
7203;SDS011;3643;52.460;13.322;2023-11-19T09:10:59;17.07;;;8.53;;
7203;SDS011;3643;52.460;13.322;2023-11-19T09:13:27;15.07;;;7.93;;
7203;SDS011;3643;52.460;13.322;2023-11-19T09:15:57;12.57;;;7.60;;
7203;SDS011;3643;52.460;13.322;2023-11-19T09:18:29;15.57;;;7.73;;
7203;SDS011;3643;52.460;13.322;2023-11-19T09:20:58;15.90;;;7.57;;
7203;SDS011;3643;52.460;13.322;2023-11-19T09:23:26;13.50;;;7.93;;
7203;SDS011;3643;52.460;13.322;2023-11-19T09:25:55;13.13;;;8.03;;
7203;SDS011;3643;52.460;13.322;2023-11-19T09:28:23;15.17;;;8.03;;
7203;SDS011;3643;52.460;13.322;2023-11-19T09:30:51;13.47;;;8.07;;
7203;SDS011;3643;52.460;13.322;2023-11-19T09:33:20;15.47;;;8.13;;
7203;SDS011;3643;52.460;13.322;2023-11-19T09:35:49;11.23;;;6.97;;
7203;SDS011;3643;52.460;13.322;2023-11-19T09:38:17;13.53;;;8.07;;
7203;SDS011;3643;52.460;13.322;2023-11-19T09:40:45;14.90;;;7.37;;
7203;SDS011;3643;52.460;13.322;2023-11-19T09:43:13;14.50;;;7.20;;
7203;SDS011;3643;52.460;13.322;2023-11-19T09:45:45;16.33;;;7.73;;
7203;SDS011;3643;52.460;13.322;2023-11-19T09:48:16;11.33;;;5.47;;
7203;SDS011;3643;52.460;13.322;2023-11-19T09:50:47;9.40;;;4.73;;
7203;SDS011;3643;52.460;13.322;2023-11-19T09:53:15;8.53;;;5.27;;
7203;SDS011;3643;52.460;13.322;2023-11-19T09:55:43;9.97;;;4.33;;
7203;SDS011;3643;52.460;13.322;2023-11-19T09:58:12;9.43;;;4.13;;
7203;SDS011;3643;52.460;13.322;2023-11-19T10:00:42;5.57;;;3.67;;
7203;SDS011;3643;52.460;13.322;2023-11-19T10:03:20;8.30;;;3.73;;
7203;SDS011;3643;52.460;13.322;2023-11-19T10:05:51;5.47;;;3.10;;
7203;SDS011;3643;52.460;13.322;2023-11-19T10:08:21;5.97;;;3.33;;
7203;SDS011;3643;52.460;13.322;2023-11-19T10:10:50;6.13;;;3.30;;
7203;SDS011;3643;52.460;13.322;2023-11-19T10:13:18;5.30;;;3.00;;
7203;SDS011;3643;52.460;13.322;2023-11-19T10:15:46;10.30;;;3.57;;
7203;SDS011;3643;52.460;13.322;2023-11-19T10:18:16;6.73;;;3.23;;
7203;SDS011;3643;52.460;13.322;2023-11-19T10:20:44;10.10;;;3.37;;
7203;SDS011;3643;52.460;13.322;2023-11-19T10:23:14;8.27;;;3.17;;
7203;SDS011;3643;52.460;13.322;2023-11-19T10:25:42;8.10;;;3.30;;
7203;SDS011;3643;52.460;13.322;2023-11-19T10:28:10;6.43;;;2.80;;
7203;SDS011;3643;52.460;13.322;2023-11-19T10:30:38;5.00;;;3.07;;
7203;SDS011;3643;52.460;13.322;2023-11-19T10:33:07;13.13;;;3.93;;
7203;SDS011;3643;52.460;13.322;2023-11-19T10:35:36;10.73;;;3.63;;
7203;SDS011;3643;52.460;13.322;2023-11-19T10:38:22;9.97;;;3.10;;
7203;SDS011;3643;52.460;13.322;2023-11-19T10:40:52;11.33;;;3.43;;
7203;SDS011;3643;52.460;13.322;2023-11-19T10:43:21;12.93;;;4.00;;
7203;SDS011;3643;52.460;13.322;2023-11-19T10:45:50;6.77;;;3.03;;
7203;SDS011;3643;52.460;13.322;2023-11-19T10:48:18;8.77;;;3.57;;
7203;SDS011;3643;52.460;13.322;2023-11-19T10:50:49;14.77;;;3.23;;
7203;SDS011;3643;52.460;13.322;2023-11-19T10:53:23;18.43;;;3.47;;
7203;SDS011;3643;52.460;13.322;2023-11-19T10:55:53;11.70;;;3.00;;
7203;SDS011;3643;52.460;13.322;2023-11-19T10:58:26;11.83;;;3.10;;
7203;SDS011;3643;52.460;13.322;2023-11-19T11:00:57;15.33;;;3.50;;
7203;SDS011;3643;52.460;13.322;2023-11-19T11:03:29;11.60;;;3.23;;
7203;SDS011;3643;52.460;13.322;2023-11-19T11:06:07;9.50;;;3.13;;
7203;SDS011;3643;52.460;13.322;2023-11-19T11:08:38;18.73;;;3.77;;
7203;SDS011;3643;52.460;13.322;2023-11-19T11:11:07;15.73;;;3.63;;
7203;SDS011;3643;52.460;13.322;2023-11-19T11:13:36;14.30;;;3.87;;
7203;SDS011;3643;52.460;13.322;2023-11-19T11:16:08;13.03;;;3.97;;
7203;SDS011;3643;52.460;13.322;2023-11-19T11:18:37;10.73;;;3.57;;
7203;SDS011;3643;52.460;13.322;2023-11-19T11:21:06;14.47;;;4.03;;
7203;SDS011;3643;52.460;13.322;2023-11-19T11:26:42;13.03;;;3.97;;
7203;SDS011;3643;52.460;13.322;2023-11-19T11:29:35;16.73;;;4.63;;
7203;SDS011;3643;52.460;13.322;2023-11-19T11:32:13;18.33;;;4.27;;
7203;SDS011;3643;52.460;13.322;2023-11-19T11:35:07;24.13;;;4.93;;
7203;SDS011;3643;52.460;13.322;2023-11-19T11:38:00;15.40;;;4.27;;
7203;SDS011;3643;52.460;13.322;2023-11-19T11:40:34;17.10;;;4.20;;
7203;SDS011;3643;52.460;13.322;2023-11-19T11:43:03;22.30;;;4.60;;
7203;SDS011;3643;52.460;13.322;2023-11-19T11:45:35;23.80;;;5.10;;
7203;SDS011;3643;52.460;13.322;2023-11-19T11:48:14;19.27;;;5.17;;
7203;SDS011;3643;52.460;13.322;2023-11-19T11:50:50;27.27;;;5.70;;
7203;SDS011;3643;52.460;13.322;2023-11-19T11:53:22;24.37;;;4.80;;
7203;SDS011;3643;52.460;13.322;2023-11-19T11:55:59;26.03;;;5.67;;
7203;SDS011;3643;52.460;13.322;2023-11-19T11:58:29;23.87;;;5.57;;
7203;SDS011;3643;52.460;13.322;2023-11-19T12:01:00;25.43;;;5.40;;
7203;SDS011;3643;52.460;13.322;2023-11-19T12:03:29;31.40;;;5.63;;
7203;SDS011;3643;52.460;13.322;2023-11-19T12:05:59;20.87;;;5.47;;
7203;SDS011;3643;52.460;13.322;2023-11-19T12:08:28;19.90;;;4.93;;
7203;SDS011;3643;52.460;13.322;2023-11-19T12:10:58;28.07;;;5.90;;
7203;SDS011;3643;52.460;13.322;2023-11-19T12:13:45;32.20;;;5.30;;
7203;SDS011;3643;52.460;13.322;2023-11-19T12:16:15;21.10;;;4.50;;
7203;SDS011;3643;52.460;13.322;2023-11-19T12:18:43;21.93;;;4.97;;
7203;SDS011;3643;52.460;13.322;2023-11-19T12:21:12;22.37;;;5.07;;
7203;SDS011;3643;52.460;13.322;2023-11-19T12:23:55;20.43;;;4.97;;
7203;SDS011;3643;52.460;13.322;2023-11-19T12:26:32;23.93;;;4.77;;
7203;SDS011;3643;52.460;13.322;2023-11-19T12:29:01;21.10;;;4.77;;
7203;SDS011;3643;52.460;13.322;2023-11-19T12:31:35;21.93;;;5.57;;
7203;SDS011;3643;52.460;13.322;2023-11-19T12:34:07;20.70;;;5.30;;
7203;SDS011;3643;52.460;13.322;2023-11-19T12:36:39;22.27;;;5.17;;
7203;SDS011;3643;52.460;13.322;2023-11-19T12:39:09;24.90;;;5.50;;
7203;SDS011;3643;52.460;13.322;2023-11-19T12:41:50;21.77;;;4.97;;
7203;SDS011;3643;52.460;13.322;2023-11-19T12:44:18;30.07;;;5.27;;
7203;SDS011;3643;52.460;13.322;2023-11-19T12:46:58;22.87;;;6.40;;
7203;SDS011;3643;52.460;13.322;2023-11-19T12:49:27;21.17;;;5.30;;
7203;SDS011;3643;52.460;13.322;2023-11-19T12:51:55;14.40;;;5.00;;
7203;SDS011;3643;52.460;13.322;2023-11-19T12:57:11;26.97;;;5.40;;
7203;SDS011;3643;52.460;13.322;2023-11-19T12:59:40;31.50;;;5.77;;
7203;SDS011;3643;52.460;13.322;2023-11-19T13:02:09;26.33;;;5.30;;
7203;SDS011;3643;52.460;13.322;2023-11-19T13:04:37;23.43;;;5.17;;
7203;SDS011;3643;52.460;13.322;2023-11-19T13:07:05;24.40;;;5.67;;
7203;SDS011;3643;52.460;13.322;2023-11-19T13:09:33;25.77;;;5.40;;
7203;SDS011;3643;52.460;13.322;2023-11-19T13:12:11;29.87;;;5.73;;
7203;SDS011;3643;52.460;13.322;2023-11-19T13:14:41;31.23;;;6.00;;
7203;SDS011;3643;52.460;13.322;2023-11-19T13:17:14;24.00;;;5.27;;
7203;SDS011;3643;52.460;13.322;2023-11-19T13:19:43;35.17;;;6.70;;
7203;SDS011;3643;52.460;13.322;2023-11-19T13:22:11;25.67;;;5.47;;
7203;SDS011;3643;52.460;13.322;2023-11-19T13:24:39;22.30;;;5.80;;
7203;SDS011;3643;52.460;13.322;2023-11-19T13:27:09;21.17;;;5.60;;
7203;SDS011;3643;52.460;13.322;2023-11-19T13:29:38;30.73;;;5.33;;
7203;SDS011;3643;52.460;13.322;2023-11-19T13:32:06;28.63;;;6.07;;
7203;SDS011;3643;52.460;13.322;2023-11-19T13:34:34;19.43;;;5.77;;
7203;SDS011;3643;52.460;13.322;2023-11-19T13:37:02;26.23;;;5.27;;
7203;SDS011;3643;52.460;13.322;2023-11-19T13:39:31;31.83;;;5.97;;
7203;SDS011;3643;52.460;13.322;2023-11-19T13:41:59;27.97;;;5.90;;
7203;SDS011;3643;52.460;13.322;2023-11-19T13:44:30;28.83;;;5.70;;
7203;SDS011;3643;52.460;13.322;2023-11-19T13:46:59;21.23;;;4.97;;
7203;SDS011;3643;52.460;13.322;2023-11-19T13:49:28;19.83;;;5.57;;
7203;SDS011;3643;52.460;13.322;2023-11-19T13:51:56;22.03;;;5.80;;
7203;SDS011;3643;52.460;13.322;2023-11-19T13:54:25;32.60;;;6.03;;
7203;SDS011;3643;52.460;13.322;2023-11-19T13:56:54;31.43;;;7.90;;
7203;SDS011;3643;52.460;13.322;2023-11-19T13:59:24;34.33;;;6.37;;
7203;SDS011;3643;52.460;13.322;2023-11-19T14:01:52;33.83;;;5.87;;
7203;SDS011;3643;52.460;13.322;2023-11-19T14:04:21;30.53;;;6.13;;
7203;SDS011;3643;52.460;13.322;2023-11-19T14:06:50;31.23;;;5.97;;
7203;SDS011;3643;52.460;13.322;2023-11-19T14:09:18;27.70;;;6.30;;
7203;SDS011;3643;52.460;13.322;2023-11-19T14:11:46;30.23;;;6.33;;
7203;SDS011;3643;52.460;13.322;2023-11-19T14:14:14;29.80;;;6.20;;
7203;SDS011;3643;52.460;13.322;2023-11-19T14:16:43;47.43;;;7.33;;
7203;SDS011;3643;52.460;13.322;2023-11-19T14:19:12;32.77;;;6.40;;
7203;SDS011;3643;52.460;13.322;2023-11-19T14:21:42;24.70;;;5.73;;
7203;SDS011;3643;52.460;13.322;2023-11-19T14:24:11;37.83;;;5.40;;
7203;SDS011;3643;52.460;13.322;2023-11-19T14:26:39;27.83;;;5.90;;
7203;SDS011;3643;52.460;13.322;2023-11-19T14:29:07;29.67;;;5.70;;
7203;SDS011;3643;52.460;13.322;2023-11-19T14:31:35;29.90;;;5.97;;
7203;SDS011;3643;52.460;13.322;2023-11-19T14:34:03;31.90;;;5.73;;
7203;SDS011;3643;52.460;13.322;2023-11-19T14:36:32;29.33;;;5.67;;
7203;SDS011;3643;52.460;13.322;2023-11-19T14:39:01;38.30;;;6.33;;
7203;SDS011;3643;52.460;13.322;2023-11-19T14:41:30;24.57;;;5.50;;
7203;SDS011;3643;52.460;13.322;2023-11-19T14:43:58;31.50;;;5.73;;
7203;SDS011;3643;52.460;13.322;2023-11-19T14:46:27;31.00;;;5.50;;
7203;SDS011;3643;52.460;13.322;2023-11-19T14:48:55;35.93;;;5.70;;
7203;SDS011;3643;52.460;13.322;2023-11-19T14:51:23;35.50;;;5.90;;
7203;SDS011;3643;52.460;13.322;2023-11-19T14:53:51;23.00;;;5.40;;
7203;SDS011;3643;52.460;13.322;2023-11-19T14:56:20;34.10;;;5.60;;
7203;SDS011;3643;52.460;13.322;2023-11-19T14:58:49;29.17;;;4.97;;
7203;SDS011;3643;52.460;13.322;2023-11-19T15:01:17;20.63;;;4.40;;
7203;SDS011;3643;52.460;13.322;2023-11-19T15:03:45;35.13;;;5.33;;
7203;SDS011;3643;52.460;13.322;2023-11-19T15:06:16;31.50;;;6.40;;
7203;SDS011;3643;52.460;13.322;2023-11-19T15:08:44;32.10;;;5.63;;
7203;SDS011;3643;52.460;13.322;2023-11-19T15:11:12;29.13;;;4.57;;